Wingate, TX (79566)

1:56 PM CDT on April 30, 2017 (GMT -0500)
Robertson weather | | Change Station

Elev 2007 ft 32.05 °N, 100.28 °W | Updated 4 seconds ago

Clear
Clear
63.0 °F
Feels Like 63.0 °F
N
0.0
Wind Variable Wind from East
Gusts 0.0 mph

Today
High -- | Low -- °F
--% Chance of Precip.
Yesterday
High -- | Low -- °F
Precip. -- in
Pressure 29.88 in
Visibility 10.0 miles
Clouds Few 6500 ft
Dew Point 41 °F
Humidity 44%
Rainfall 0.00 in
Snow Depth Not available.
6:55 AM 8:20 PM
Waxing Crescent, 25% visible
METAR KDYS 301758Z AUTO 29023G36KT 10SM FEW065 16/00 A2991 RMK AO2 PK WND 34041/26 SLP116 P0001 60001 T01611000 10162 20059 55002 $
Pressure 29.88 in
Visibility 10.0 miles
Clouds Few 6500 ft
Dew Point 41 °F
Humidity 44%
Rainfall 0.00 in
Snow Depth Not available.
6:55 AM 8:20 PM
Waxing Crescent, 25% visible
METAR KDYS 301758Z AUTO 29023G36KT 10SM FEW065 16/00 A2991 RMK AO2 PK WND 34041/26 SLP116 P0001 60001 T01611000 10162 20059 55002 $

Get Severe Weather Alerts

Thanks for signing up!

Be on the lookout for a verification email in your inbox.

You'll start receiving the daily forecast at 8 AM.

×

10-Day Weather Forecast

Almanac

Astronomy

Apr. 30, 2017 Rise Set
Actual Time
Civil Twilight
Nautical Twilight
Astronomical Twilight
Moon
Length of Visible Light
Length of Day
Tomorrow will be .
, % of the Moon is Illuminated

Today's Extremes

State Highs State Lows

Community

WunderPhotos

WunderBlog® & News

Nearby

Air Quality

  Air Quality AQ Index Pollutant
Not available.

Snow Depth

Station Depth Elevation

Earthquake Activity

City Distance Mag. Time & Date
Minimum magnitude displayed is 2.5.

Coastal Water Temperatures

Place Temperature

Stations

Nearby Weather Stations

Station Location Temp. Windchill Dew Point Humidity Wind Precip. Elev Updated Type
                   

Watches & Warnings

There are currently no watches in effect.